createdAt,value
2018-05-17T00:00:57.906Z,1008.45
2018-05-17T00:01:57.846Z,1008.46
2018-05-17T00:02:57.783Z,1008.41
2018-05-17T00:03:57.723Z,1008.47
2018-05-17T00:04:57.660Z,1008.46
2018-05-17T00:05:57.599Z,1008.40
2018-05-17T00:06:57.542Z,1008.44
2018-05-17T00:07:57.473Z,1008.42
2018-05-17T00:08:57.418Z,1008.43
2018-05-17T00:09:57.361Z,1008.43
2018-05-17T00:10:57.323Z,1008.41
2018-05-17T00:11:57.360Z,1008.46
2018-05-17T00:12:57.171Z,1008.39
2018-05-17T00:13:57.112Z,1008.44
2018-05-17T00:14:57.050Z,1008.44
2018-05-17T00:15:56.989Z,1008.42
2018-05-17T00:16:56.928Z,1008.43
2018-05-17T00:17:56.868Z,1008.49
2018-05-17T00:18:56.809Z,1008.45
2018-05-17T00:19:56.739Z,1008.40
2018-05-17T00:20:56.683Z,1008.38
2018-05-17T00:21:56.621Z,1008.41
2018-05-17T00:22:56.562Z,1008.41
2018-05-17T00:23:56.499Z,1008.42
2018-05-17T00:24:56.442Z,1008.43
2018-05-17T00:25:56.374Z,1008.43
2018-05-17T00:26:56.319Z,1008.41
2018-05-17T00:27:56.255Z,1008.42
2018-05-17T00:28:56.196Z,1008.42
2018-05-17T00:29:56.141Z,1008.43
2018-05-17T00:30:56.075Z,1008.40
2018-05-17T00:31:56.011Z,1008.41
2018-05-17T00:32:55.949Z,1008.41
2018-05-17T00:33:55.890Z,1008.42
2018-05-17T00:34:55.832Z,1008.43
2018-05-17T00:35:55.768Z,1008.44
2018-05-17T00:36:55.711Z,1008.43
2018-05-17T00:37:55.647Z,1008.43
2018-05-17T00:38:55.586Z,1008.48
2018-05-17T00:39:55.530Z,1008.45
2018-05-17T00:40:55.457Z,1008.45
2018-05-17T00:41:55.403Z,1008.45
2018-05-17T00:42:55.344Z,1008.45
2018-05-17T00:43:55.282Z,1008.47
2018-05-17T00:44:55.218Z,1008.44
2018-05-17T00:45:55.172Z,1008.42
2018-05-17T00:46:55.093Z,1008.42
2018-05-17T00:47:55.037Z,1008.40
2018-05-17T00:48:54.974Z,1008.40
2018-05-17T00:49:54.910Z,1008.39
2018-05-17T00:50:54.848Z,1008.38
2018-05-17T00:51:54.785Z,1008.47
2018-05-17T00:52:54.729Z,1008.41
2018-05-17T00:53:54.673Z,1008.44
2018-05-17T00:54:54.605Z,1008.43
2018-05-17T00:55:54.545Z,1008.43
2018-05-17T00:56:54.484Z,1008.44
2018-05-17T00:57:54.421Z,1008.46
2018-05-17T00:58:54.356Z,1008.46
2018-05-17T00:59:54.301Z,1008.47
2018-05-17T01:00:54.237Z,1008.45
2018-05-17T01:01:54.179Z,1008.43
2018-05-17T01:02:54.118Z,1008.44
2018-05-17T01:03:54.054Z,1008.41
2018-05-17T01:04:53.992Z,1008.46
2018-05-17T01:05:53.934Z,1008.41
2018-05-17T01:06:53.878Z,1008.43
2018-05-17T01:07:53.808Z,1008.40
2018-05-17T01:08:53.748Z,1008.48
2018-05-17T01:09:53.686Z,1008.42
2018-05-17T01:10:53.629Z,1008.41
2018-05-17T01:11:53.570Z,1008.37
2018-05-17T01:12:53.513Z,1008.35
2018-05-17T01:13:53.442Z,1008.41
2018-05-17T01:14:53.384Z,1008.40
2018-05-17T01:15:53.319Z,1008.39
2018-05-17T01:16:53.259Z,1008.40
2018-05-17T01:17:53.198Z,1008.37
2018-05-17T01:18:53.134Z,1008.39
2018-05-17T01:19:53.074Z,1008.38
2018-05-17T01:20:53.013Z,1008.36
2018-05-17T01:21:52.949Z,1008.35
2018-05-17T01:22:52.889Z,1008.36
2018-05-17T01:23:52.825Z,1008.28
2018-05-17T01:24:52.790Z,1008.33
2018-05-17T01:25:52.706Z,1008.30
2018-05-17T01:26:52.646Z,1008.31
2018-05-17T01:27:52.583Z,1008.32
2018-05-17T01:28:52.521Z,1008.33
2018-05-17T01:29:52.467Z,1008.38
2018-05-17T01:30:52.399Z,1008.34
2018-05-17T01:31:52.346Z,1008.32
2018-05-17T01:32:52.271Z,1008.32
2018-05-17T01:33:52.218Z,1008.33
2018-05-17T01:34:52.150Z,1008.33
2018-05-17T01:35:52.088Z,1008.34
2018-05-17T01:36:52.032Z,1008.28
2018-05-17T01:37:51.969Z,1008.27
2018-05-17T01:38:51.903Z,1008.25
2018-05-17T01:39:51.845Z,1008.25
2018-05-17T01:40:51.782Z,1008.25
2018-05-17T01:41:51.721Z,1008.23
2018-05-17T01:42:51.658Z,1008.28
2018-05-17T01:43:51.601Z,1008.28
2018-05-17T01:44:51.533Z,1008.30
2018-05-17T01:45:51.473Z,1008.29
2018-05-17T01:46:51.418Z,1008.26
2018-05-17T01:47:51.350Z,1008.24
2018-05-17T01:48:51.291Z,1008.22
2018-05-17T01:49:51.229Z,1008.26
2018-05-17T01:50:51.167Z,1008.22
2018-05-17T01:51:51.111Z,1008.21
2018-05-17T01:52:51.042Z,1008.24
2018-05-17T01:53:50.983Z,1008.30
2018-05-17T01:54:50.916Z,1008.31
2018-05-17T01:55:50.857Z,1008.27
2018-05-17T01:56:50.792Z,1008.26
2018-05-17T01:57:50.736Z,1008.34
2018-05-17T01:58:50.678Z,1008.32
2018-05-17T01:59:50.610Z,1008.35
2018-05-17T02:00:50.547Z,1008.36
2018-05-17T02:01:50.489Z,1008.40
2018-05-17T02:02:50.428Z,1008.37
2018-05-17T02:03:50.360Z,1008.38
2018-05-17T02:04:50.296Z,1008.37
2018-05-17T02:05:50.240Z,1008.39
2018-05-17T02:06:50.176Z,1008.40
2018-05-17T02:07:50.130Z,1008.40
2018-05-17T02:08:50.053Z,1008.41
2018-05-17T02:09:49.989Z,1008.39
2018-05-17T02:10:49.933Z,1008.42
2018-05-17T02:11:49.870Z,1008.41
2018-05-17T02:12:49.805Z,1008.40
2018-05-17T02:13:49.741Z,1008.38
2018-05-17T02:14:49.680Z,1008.39
2018-05-17T02:15:49.616Z,1008.39
2018-05-17T02:16:49.553Z,1008.41
2018-05-17T02:17:49.506Z,1008.48
2018-05-17T02:18:49.435Z,1008.43
2018-05-17T02:19:49.372Z,1008.42
2018-05-17T02:20:49.313Z,1008.48
2018-05-17T02:21:49.244Z,1008.42
2018-05-17T02:22:49.188Z,1008.41
2018-05-17T02:23:49.121Z,1008.44
2018-05-17T02:24:49.060Z,1008.47
2018-05-17T02:25:48.996Z,1008.46
2018-05-17T02:26:48.934Z,1008.48
2018-05-17T02:27:48.873Z,1008.46
2018-05-17T02:28:48.812Z,1008.45
2018-05-17T02:29:48.749Z,1008.46
2018-05-17T02:30:48.686Z,1008.48
2018-05-17T02:31:48.625Z,1008.43
2018-05-17T02:32:48.569Z,1008.48
2018-05-17T02:33:48.501Z,1008.45
2018-05-17T02:34:48.439Z,1008.45
2018-05-17T02:35:48.374Z,1008.50
2018-05-17T02:36:48.312Z,1008.51
2018-05-17T02:37:48.253Z,1008.50
2018-05-17T02:38:48.194Z,1008.50
2018-05-17T02:39:48.127Z,1008.48
2018-05-17T02:40:48.063Z,1008.52
2018-05-17T02:41:48.004Z,1008.55
2018-05-17T02:42:47.942Z,1008.52
2018-05-17T02:43:47.881Z,1008.54
2018-05-17T02:44:47.817Z,1008.53
2018-05-17T02:45:47.753Z,1008.48
2018-05-17T02:46:47.715Z,1008.49
2018-05-17T02:47:47.629Z,1008.48
2018-05-17T02:48:47.562Z,1008.44
2018-05-17T02:49:47.515Z,1008.42
2018-05-17T02:50:47.443Z,1008.41
2018-05-17T02:51:47.377Z,1008.43
2018-05-17T02:52:47.327Z,1008.51
2018-05-17T02:53:47.252Z,1008.50
2018-05-17T02:54:47.192Z,1008.54
2018-05-17T02:55:47.130Z,1008.49
2018-05-17T02:56:47.075Z,1008.51
2018-05-17T02:57:47.002Z,1008.53
2018-05-17T02:58:46.945Z,1008.53
2018-05-17T02:59:46.881Z,1008.50
2018-05-17T03:00:46.815Z,1008.49
2018-05-17T03:01:46.761Z,1008.53
2018-05-17T03:02:46.696Z,1008.57
2018-05-17T03:03:46.633Z,1008.55
2018-05-17T03:04:46.568Z,1008.55
2018-05-17T03:05:46.512Z,1008.60
2018-05-17T03:06:46.444Z,1008.54
2018-05-17T03:07:46.382Z,1008.62
2018-05-17T03:08:46.324Z,1008.57
2018-05-17T03:09:46.258Z,1008.57
2018-05-17T03:10:46.197Z,1008.57
2018-05-17T03:11:46.132Z,1008.61
2018-05-17T03:12:46.078Z,1008.58
2018-05-17T03:13:46.010Z,1008.62
2018-05-17T03:14:45.947Z,1008.61
2018-05-17T03:15:45.883Z,1008.60
2018-05-17T03:16:45.825Z,1008.63
2018-05-17T03:17:46.489Z,1008.62
2018-05-17T03:18:45.694Z,1008.64
2018-05-17T03:19:45.628Z,1008.64
2018-05-17T03:20:45.569Z,1008.67
2018-05-17T03:21:45.512Z,1008.72
2018-05-17T03:22:45.445Z,1008.71
2018-05-17T03:23:45.384Z,1008.69
2018-05-17T03:24:45.322Z,1008.68
2018-05-17T03:25:45.268Z,1008.70
2018-05-17T03:26:45.198Z,1008.69
2018-05-17T03:27:45.130Z,1008.66
2018-05-17T03:28:45.071Z,1008.71
2018-05-17T03:29:45.011Z,1008.70
2018-05-17T03:30:44.946Z,1008.75
2018-05-17T03:31:44.879Z,1008.72
2018-05-17T03:32:44.818Z,1008.73
2018-05-17T03:33:44.756Z,1008.77
2018-05-17T03:34:44.694Z,1008.77
2018-05-17T03:35:44.632Z,1008.78
2018-05-17T03:36:44.576Z,1008.75
2018-05-17T03:37:44.503Z,1008.74
2018-05-17T03:38:44.443Z,1008.72
2018-05-17T03:39:44.379Z,1008.72
2018-05-17T03:40:44.316Z,1008.75
2018-05-17T03:41:44.252Z,1008.70
2018-05-17T03:42:44.195Z,1008.77
2018-05-17T03:43:44.141Z,1008.74
2018-05-17T03:44:44.064Z,1008.83
2018-05-17T03:45:44.004Z,1008.81
2018-05-17T03:46:43.945Z,1008.75
2018-05-17T03:47:43.881Z,1008.72
2018-05-17T03:48:43.818Z,1008.75
2018-05-17T03:49:43.754Z,1008.77
2018-05-17T03:50:43.688Z,1008.82
2018-05-17T03:51:43.624Z,1008.85
2018-05-17T03:52:43.571Z,1008.80
2018-05-17T03:53:43.503Z,1008.78
2018-05-17T03:54:43.446Z,1008.80
2018-05-17T03:55:43.379Z,1008.89
2018-05-17T03:56:43.316Z,1008.81
2018-05-17T03:57:43.254Z,1008.82
2018-05-17T03:58:43.189Z,1008.83
2018-05-17T03:59:43.131Z,1008.89
2018-05-17T04:00:43.063Z,1008.85
2018-05-17T04:01:43.001Z,1008.89
2018-05-17T04:02:42.947Z,1008.95
2018-05-17T04:03:42.878Z,1008.92
2018-05-17T04:04:42.822Z,1008.95
2018-05-17T04:05:42.752Z,1009.01
2018-05-17T04:06:42.690Z,1009.02
2018-05-17T04:07:42.627Z,1009.04
2018-05-17T04:08:42.565Z,1009.08
2018-05-17T04:09:42.505Z,1009.07
2018-05-17T04:10:42.439Z,1009.12
2018-05-17T04:11:42.375Z,1009.06
2018-05-17T04:12:42.312Z,1009.10
2018-05-17T04:13:42.251Z,1009.07
2018-05-17T04:14:42.191Z,1009.08
2018-05-17T04:15:42.128Z,1009.13
2018-05-17T04:16:42.063Z,1009.14
2018-05-17T04:17:42.004Z,1009.13
2018-05-17T04:18:41.940Z,1009.12
2018-05-17T04:19:41.877Z,1009.12
2018-05-17T04:20:41.815Z,1009.14
2018-05-17T04:21:50.400Z,1009.13
2018-05-17T04:23:36.089Z,1009.17
2018-05-17T04:24:35.949Z,1009.19
2018-05-17T04:26:30.241Z,1009.19
2018-05-17T04:27:30.145Z,1009.19
2018-05-17T04:29:23.468Z,1009.16
2018-05-17T04:30:30.998Z,1009.16
2018-05-17T04:32:16.681Z,1009.22
2018-05-17T04:33:16.568Z,1009.19
2018-05-17T04:35:10.867Z,1009.18
2018-05-17T04:36:10.766Z,1009.18
2018-05-17T04:38:04.084Z,1009.17
2018-05-17T04:39:03.973Z,1009.20
2018-05-17T04:40:58.279Z,1009.19
2018-05-17T04:41:58.178Z,1009.24
2018-05-17T04:43:53.078Z,1009.24
2018-05-17T04:44:52.373Z,1009.29
2018-05-17T04:46:46.667Z,1009.28
2018-05-17T04:47:46.572Z,1009.29
2018-05-17T04:49:40.877Z,1009.38
2018-05-17T04:50:40.770Z,1009.34
2018-05-17T04:52:35.064Z,1009.41
2018-05-17T04:53:34.974Z,1009.42
2018-05-17T04:55:29.265Z,1009.45
2018-05-17T04:56:29.167Z,1009.45
2018-05-17T04:58:23.472Z,1009.48
2018-05-17T04:59:23.363Z,1009.48
2018-05-17T05:01:17.657Z,1009.47
2018-05-17T05:02:17.567Z,1009.48
2018-05-17T05:04:11.874Z,1009.47
2018-05-17T05:05:11.766Z,1009.49
2018-05-17T05:07:06.068Z,1009.52
2018-05-17T05:08:05.970Z,1009.60
2018-05-17T05:10:00.262Z,1009.60
2018-05-17T05:11:00.169Z,1009.61
2018-05-17T05:12:54.074Z,1009.62
2018-05-17T05:13:53.378Z,1009.68
2018-05-17T05:15:47.686Z,1009.69
2018-05-17T05:16:47.578Z,1009.67
2018-05-17T05:18:41.986Z,1009.65
2018-05-17T05:19:41.779Z,1009.60
2018-05-17T05:21:36.092Z,1009.69
2018-05-17T05:22:35.995Z,1009.68
2018-05-17T05:24:30.301Z,1009.64
2018-05-17T05:25:30.234Z,1009.66
2018-05-17T05:27:23.512Z,1009.66
2018-05-17T05:28:23.450Z,1009.66
2018-05-17T05:29:23.356Z,1009.67
2018-05-17T05:30:23.297Z,1009.70
2018-05-17T05:31:23.233Z,1009.63
2018-05-17T05:32:23.167Z,1009.67
2018-05-17T05:33:23.227Z,1009.71
2018-05-17T05:34:23.048Z,1009.72
2018-05-17T05:35:22.983Z,1009.77
2018-05-17T05:36:22.924Z,1009.83
2018-05-17T05:37:22.862Z,1009.84
2018-05-17T05:38:22.804Z,1009.86
2018-05-17T05:39:22.742Z,1009.85
2018-05-17T05:40:22.676Z,1009.88
2018-05-17T05:41:22.612Z,1009.86
2018-05-17T05:42:22.552Z,1009.88
2018-05-17T05:43:22.588Z,1009.98
2018-05-17T05:44:22.432Z,1009.90
2018-05-17T05:45:22.371Z,1009.91
2018-05-17T05:46:22.315Z,1009.88
2018-05-17T05:47:22.244Z,1009.96
2018-05-17T05:48:22.180Z,1009.92
2018-05-17T05:49:22.184Z,1009.95
2018-05-17T05:50:22.065Z,1009.95
2018-05-17T05:51:22.000Z,1009.91
2018-05-17T05:52:21.938Z,1009.94
2018-05-17T05:53:21.873Z,1009.92
2018-05-17T05:54:21.814Z,1009.98
2018-05-17T05:55:21.753Z,1009.98
2018-05-17T05:56:21.691Z,1010.00
2018-05-17T05:57:21.631Z,1010.03
2018-05-17T05:58:21.571Z,1009.99
2018-05-17T05:59:21.509Z,1010.06
2018-05-17T06:00:21.448Z,1010.06
2018-05-17T06:01:21.383Z,1010.08
2018-05-17T06:02:21.350Z,1010.12
2018-05-17T06:03:21.263Z,1010.11
2018-05-17T06:04:21.201Z,1010.15
2018-05-17T06:05:21.142Z,1010.17
2018-05-17T06:06:21.082Z,1010.24
2018-05-17T06:07:21.018Z,1010.19
2018-05-17T06:08:21.058Z,1010.32
2018-05-17T06:09:20.895Z,1010.36
2018-05-17T06:10:20.835Z,1010.32
2018-05-17T06:11:20.776Z,1010.36
2018-05-17T06:12:20.721Z,1010.36
2018-05-17T06:13:20.651Z,1010.31
2018-05-17T06:14:20.590Z,1010.28
2018-05-17T06:15:20.531Z,1010.38
2018-05-17T06:16:20.469Z,1010.22
2018-05-17T06:17:20.444Z,1010.37
2018-05-17T06:18:20.350Z,1010.34
2018-05-17T06:19:20.286Z,1010.37
2018-05-17T06:20:20.228Z,1010.40
2018-05-17T06:21:20.165Z,1010.43
2018-05-17T06:22:20.108Z,1010.38
2018-05-17T06:23:20.046Z,1010.36
2018-05-17T06:24:19.985Z,1010.37
2018-05-17T06:25:19.924Z,1010.48
2018-05-17T06:26:19.862Z,1010.37
2018-05-17T06:27:19.803Z,1010.43
2018-05-17T06:28:19.740Z,1010.45
2018-05-17T06:29:19.697Z,1010.40
2018-05-17T06:30:19.752Z,1010.51
2018-05-17T06:31:19.560Z,1010.51
2018-05-17T06:32:19.496Z,1010.51
2018-05-17T06:33:19.437Z,1010.54
2018-05-17T06:34:19.382Z,1010.48
2018-05-17T06:35:19.316Z,1010.41
2018-05-17T06:36:19.258Z,1010.45
2018-05-17T06:37:19.195Z,1010.44
2018-05-17T06:38:19.143Z,1010.42
2018-05-17T06:39:19.076Z,1010.48
2018-05-17T06:40:19.014Z,1010.49
2018-05-17T06:41:18.955Z,1010.47
2018-05-17T06:42:18.910Z,1010.57
2018-05-17T06:43:18.832Z,1010.49
2018-05-17T06:44:18.771Z,1010.55
2018-05-17T06:45:18.712Z,1010.58
2018-05-17T06:46:18.653Z,1010.63
2018-05-17T06:47:19.098Z,1010.66
2018-05-17T06:48:19.096Z,1010.69
2018-05-17T06:49:18.471Z,1010.76
2018-05-17T06:50:18.411Z,1010.80
2018-05-17T06:51:18.350Z,1010.79
2018-05-17T06:52:18.283Z,1010.97
2018-05-17T06:53:18.226Z,1010.83
2018-05-17T06:54:18.172Z,1010.77
2018-05-17T06:55:18.106Z,1010.79
2018-05-17T06:56:18.051Z,1010.90
2018-05-17T06:57:17.991Z,1010.99
2018-05-17T06:58:17.923Z,1010.90
2018-05-17T06:59:17.867Z,1010.94
2018-05-17T07:00:17.808Z,1010.85
2018-05-17T07:01:17.758Z,1010.88
2018-05-17T07:02:17.689Z,1010.90
2018-05-17T07:03:17.623Z,1010.93
2018-05-17T07:04:17.562Z,1010.88
2018-05-17T07:05:17.513Z,1010.84
2018-05-17T07:06:17.462Z,1010.92
2018-05-17T07:07:25.041Z,1010.95
2018-05-17T07:09:10.711Z,1010.92
2018-05-17T07:10:10.610Z,1011.01
2018-05-17T07:12:04.917Z,1010.96
2018-05-17T07:13:04.821Z,1011.00
2018-05-17T07:14:04.771Z,1011.05
2018-05-17T07:15:04.717Z,1010.95
2018-05-17T07:16:04.648Z,1011.04
2018-05-17T07:17:04.604Z,1011.02
2018-05-17T07:18:04.676Z,1010.98
2018-05-17T07:19:04.473Z,1011.04
2018-05-17T07:20:04.412Z,1010.97
2018-05-17T07:21:04.355Z,1010.90
2018-05-17T07:22:04.292Z,1010.90
2018-05-17T07:23:04.236Z,1010.86
2018-05-17T07:24:04.263Z,1010.94
2018-05-17T07:25:04.117Z,1010.85
2018-05-17T07:26:04.060Z,1010.94
2018-05-17T07:27:04.043Z,1010.91
2018-05-17T07:28:03.947Z,1010.98
2018-05-17T07:29:03.884Z,1010.92
2018-05-17T07:30:03.823Z,1011.02
2018-05-17T07:31:03.766Z,1011.07
2018-05-17T07:32:03.705Z,1011.06
2018-05-17T07:33:03.646Z,1011.14
2018-05-17T07:34:03.586Z,1011.17
2018-05-17T07:35:03.534Z,1011.15
2018-05-17T07:36:03.470Z,1011.09
2018-05-17T07:37:03.410Z,1011.17
2018-05-17T07:38:03.350Z,1011.10
2018-05-17T07:39:03.290Z,1011.20
2018-05-17T07:40:03.238Z,1011.10
2018-05-17T07:41:03.174Z,1011.11
2018-05-17T07:42:03.114Z,1011.06
2018-05-17T07:43:03.057Z,1011.08
2018-05-17T07:44:03.001Z,1011.00
2018-05-17T07:45:02.941Z,1011.01
2018-05-17T07:46:02.875Z,1011.01
2018-05-17T07:47:02.819Z,1011.08
2018-05-17T07:48:02.760Z,1011.14
2018-05-17T07:49:02.704Z,1011.02
2018-05-17T07:50:02.666Z,1011.03
2018-05-17T07:51:02.580Z,1011.13
2018-05-17T07:52:02.539Z,1011.22
2018-05-17T07:53:02.465Z,1011.23
2018-05-17T07:54:02.404Z,1011.21
2018-05-17T07:55:02.347Z,1011.20
2018-05-17T07:56:02.287Z,1011.25
2018-05-17T07:57:02.229Z,1011.26
2018-05-17T07:58:02.172Z,1011.23
2018-05-17T07:59:02.114Z,1011.15
2018-05-17T08:00:02.053Z,1011.07
2018-05-17T08:01:01.995Z,1011.05
2018-05-17T08:02:01.943Z,1011.09
2018-05-17T08:03:01.880Z,1011.24
2018-05-17T08:04:01.820Z,1011.22
2018-05-17T08:05:01.758Z,1011.26
2018-05-17T08:06:01.699Z,1011.37
2018-05-17T08:07:01.644Z,1011.40
2018-05-17T08:08:01.601Z,1011.27
2018-05-17T08:09:01.530Z,1011.41
2018-05-17T08:10:01.470Z,1011.45
2018-05-17T08:11:01.405Z,1011.46
2018-05-17T08:12:01.348Z,1011.52
2018-05-17T08:13:01.294Z,1011.52
2018-05-17T08:14:01.236Z,1011.52
2018-05-17T08:15:01.174Z,1011.55
2018-05-17T08:16:01.114Z,1011.57
2018-05-17T08:17:01.058Z,1011.61
2018-05-17T08:18:01.005Z,1011.55
2018-05-17T08:19:00.944Z,1011.62
2018-05-17T08:20:00.883Z,1011.57
2018-05-17T08:21:00.826Z,1011.63
2018-05-17T08:22:00.766Z,1011.58
2018-05-17T08:23:00.705Z,1011.61
2018-05-17T08:24:00.646Z,1011.60
2018-05-17T08:25:00.590Z,1011.41
2018-05-17T08:26:00.534Z,1011.38
2018-05-17T08:27:00.477Z,1011.39
2018-05-17T08:28:00.418Z,1011.48
2018-05-17T08:29:00.418Z,1011.50
2018-05-17T08:30:00.300Z,1011.59
2018-05-17T08:31:00.257Z,1011.74
2018-05-17T08:32:00.187Z,1011.76
2018-05-17T08:33:00.129Z,1011.63
2018-05-17T08:34:00.070Z,1011.50
2018-05-17T08:35:00.012Z,1011.46
2018-05-17T08:35:59.953Z,1011.50
2018-05-17T08:36:59.896Z,1011.56
2018-05-17T08:37:59.838Z,1011.68
2018-05-17T08:38:59.788Z,1011.67
2018-05-17T08:39:59.725Z,1011.66
2018-05-17T08:40:59.675Z,1011.74
2018-05-17T08:41:59.609Z,1011.79
2018-05-17T08:42:59.552Z,1011.70
2018-05-17T08:43:59.491Z,1011.73
2018-05-17T08:44:59.436Z,1011.69
2018-05-17T08:45:59.379Z,1011.62
2018-05-17T08:46:59.319Z,1011.63
2018-05-17T08:47:59.259Z,1011.69
2018-05-17T08:48:59.204Z,1011.62
2018-05-17T08:49:59.146Z,1011.48
2018-05-17T08:50:59.091Z,1011.49
2018-05-17T08:51:59.035Z,1011.43
2018-05-17T08:52:58.986Z,1011.51
2018-05-17T08:53:58.918Z,1011.65
2018-05-17T08:54:58.860Z,1011.66
2018-05-17T08:55:58.808Z,1011.63
2018-05-17T08:56:58.748Z,1011.51
2018-05-17T08:57:58.685Z,1011.58
2018-05-17T08:58:58.630Z,1011.60
2018-05-17T08:59:58.572Z,1011.66
2018-05-17T09:00:58.518Z,1011.67
2018-05-17T09:01:58.456Z,1011.82
2018-05-17T09:02:58.399Z,1011.72
2018-05-17T09:03:58.343Z,1011.54
2018-05-17T09:04:58.282Z,1011.55
2018-05-17T09:05:58.225Z,1011.63
2018-05-17T09:06:59.015Z,1011.64
2018-05-17T09:07:58.108Z,1011.67
2018-05-17T09:08:58.051Z,1011.61
2018-05-17T09:09:57.991Z,1011.64
2018-05-17T09:10:57.936Z,1011.74
2018-05-17T09:11:57.881Z,1011.85
2018-05-17T09:12:57.825Z,1012.02
2018-05-17T09:13:57.764Z,1011.99
2018-05-17T09:14:57.704Z,1011.93
2018-05-17T09:15:57.652Z,1011.83
2018-05-17T09:16:57.589Z,1011.79
2018-05-17T09:17:57.532Z,1011.91
2018-05-17T09:18:57.472Z,1011.97
2018-05-17T09:19:57.418Z,1012.06
2018-05-17T09:20:57.364Z,1012.12
2018-05-17T09:21:57.301Z,1012.13
2018-05-17T09:22:57.249Z,1012.08
2018-05-17T09:23:57.191Z,1011.98
2018-05-17T09:24:57.130Z,1011.79
2018-05-17T09:25:57.069Z,1011.83
2018-05-17T09:26:57.013Z,1012.03
2018-05-17T09:27:56.959Z,1012.11
2018-05-17T09:28:56.900Z,1012.11
2018-05-17T09:29:56.840Z,1012.15
2018-05-17T09:30:56.787Z,1012.12
2018-05-17T09:31:56.729Z,1012.02
2018-05-17T09:32:56.667Z,1012.02
2018-05-17T09:33:56.610Z,1012.06
2018-05-17T09:34:56.554Z,1012.19
2018-05-17T09:35:56.504Z,1012.21
2018-05-17T09:36:56.446Z,1012.28
2018-05-17T09:37:56.383Z,1012.17
2018-05-17T09:38:56.328Z,1012.13
2018-05-17T09:39:56.268Z,1012.36
2018-05-17T09:40:56.290Z,1012.31
2018-05-17T09:41:56.153Z,1012.38
2018-05-17T09:42:56.098Z,1012.53
2018-05-17T09:43:56.041Z,1012.31
2018-05-17T09:44:56.004Z,1012.43
2018-05-17T09:45:55.931Z,1012.44
2018-05-17T09:46:55.866Z,1012.58
2018-05-17T09:47:55.809Z,1012.61
2018-05-17T09:48:55.754Z,1012.55
2018-05-17T09:49:55.697Z,1012.53
2018-05-17T09:50:55.646Z,1012.43
2018-05-17T09:51:55.578Z,1012.41
2018-05-17T09:52:55.531Z,1012.32
2018-05-17T09:53:55.466Z,1012.47
2018-05-17T09:54:55.490Z,1012.41
2018-05-17T09:55:55.355Z,1012.48
2018-05-17T09:56:55.297Z,1012.33
2018-05-17T09:57:55.243Z,1012.30
2018-05-17T09:58:55.189Z,1012.09
2018-05-17T09:59:55.127Z,1012.17
2018-05-17T10:00:55.075Z,1012.31
2018-05-17T10:01:55.015Z,1012.26
2018-05-17T10:02:54.958Z,1012.21
2018-05-17T10:03:54.903Z,1012.17
2018-05-17T10:04:54.842Z,1012.16
2018-05-17T10:05:54.786Z,1012.40
2018-05-17T10:06:54.734Z,1012.32
2018-05-17T10:07:54.684Z,1012.30
2018-05-17T10:08:54.638Z,1012.33
2018-05-17T10:09:54.598Z,1012.39
2018-05-17T10:10:54.504Z,1012.48
2018-05-17T10:11:54.488Z,1012.36
2018-05-17T10:12:54.387Z,1012.27
2018-05-17T10:13:54.332Z,1012.40
2018-05-17T10:14:54.274Z,1012.54
2018-05-17T10:15:54.219Z,1012.49
2018-05-17T10:16:54.166Z,1012.41
2018-05-17T10:17:54.120Z,1012.22
2018-05-17T10:18:54.043Z,1012.07
2018-05-17T10:19:53.987Z,1012.00
2018-05-17T10:20:53.933Z,1011.96
2018-05-17T10:21:53.970Z,1011.91
2018-05-17T10:22:53.815Z,1011.93
2018-05-17T10:23:53.759Z,1011.89
2018-05-17T10:24:53.713Z,1011.94
2018-05-17T10:25:53.646Z,1012.08
2018-05-17T10:26:53.595Z,1012.19
2018-05-17T10:27:53.534Z,1012.28
2018-05-17T10:28:53.474Z,1012.25
2018-05-17T10:29:53.424Z,1012.30
2018-05-17T10:30:53.362Z,1012.32
2018-05-17T10:31:53.303Z,1012.24
2018-05-17T10:32:53.245Z,1012.15
2018-05-17T10:33:53.188Z,1012.03
2018-05-17T10:34:53.137Z,1012.25
2018-05-17T10:35:53.077Z,1012.27
2018-05-17T10:36:53.016Z,1012.23
2018-05-17T10:37:52.969Z,1012.19
2018-05-17T10:38:52.909Z,1012.09
2018-05-17T10:39:52.859Z,1012.07
2018-05-17T10:40:52.801Z,1012.16
2018-05-17T10:41:52.737Z,1012.00
2018-05-17T10:42:52.697Z,1011.97
2018-05-17T10:43:52.669Z,1012.00
2018-05-17T10:44:52.563Z,1011.93
2018-05-17T10:45:52.506Z,1011.83
2018-05-17T10:46:52.461Z,1011.84
2018-05-17T10:47:52.395Z,1011.83
2018-05-17T10:48:52.340Z,1011.91
2018-05-17T10:49:52.280Z,1011.96
2018-05-17T10:50:52.221Z,1011.89
2018-05-17T10:51:52.164Z,1011.93
2018-05-17T10:52:52.107Z,1011.85
2018-05-17T10:53:52.051Z,1011.85
2018-05-17T10:54:51.994Z,1011.84
2018-05-17T10:55:51.936Z,1011.88
2018-05-17T10:56:51.879Z,1011.85
2018-05-17T10:57:51.823Z,1011.94
2018-05-17T10:58:51.767Z,1012.04
2018-05-17T10:59:51.710Z,1012.10
2018-05-17T11:00:51.956Z,1012.06
2018-05-17T11:01:52.018Z,1012.00
2018-05-17T11:02:51.539Z,1012.04
2018-05-17T11:03:51.481Z,1011.94
2018-05-17T11:04:51.424Z,1011.92
2018-05-17T11:05:51.367Z,1012.02
2018-05-17T11:06:51.313Z,1012.18
2018-05-17T11:07:51.259Z,1012.30
2018-05-17T11:08:51.203Z,1012.09
2018-05-17T11:09:51.143Z,1012.07
2018-05-17T11:10:51.114Z,1012.04
2018-05-17T11:11:51.035Z,1012.07
2018-05-17T11:12:50.980Z,1012.09
2018-05-17T11:13:50.930Z,1012.13
2018-05-17T11:14:50.873Z,1012.41
2018-05-17T11:15:50.818Z,1012.85
2018-05-17T11:16:50.760Z,1012.73
2018-05-17T11:17:50.709Z,1012.83
2018-05-17T11:18:50.656Z,1012.91
2018-05-17T11:19:50.603Z,1012.90
2018-05-17T11:20:50.546Z,1012.99
2018-05-17T11:21:50.492Z,1013.05
2018-05-17T11:22:50.434Z,1012.40
2018-05-17T11:23:50.383Z,1012.36
2018-05-17T11:24:50.335Z,1012.17
2018-05-17T11:25:50.356Z,1012.57
2018-05-17T11:26:50.227Z,1013.12
2018-05-17T11:27:50.177Z,1013.08
2018-05-17T11:28:50.119Z,1013.23
2018-05-17T11:29:50.107Z,1013.02
2018-05-17T11:30:50.017Z,1012.47
2018-05-17T11:31:49.965Z,1012.22
2018-05-17T11:32:49.912Z,1012.19
2018-05-17T11:33:49.859Z,1013.04
2018-05-17T11:34:49.805Z,1013.01
2018-05-17T11:35:49.751Z,1012.20
2018-05-17T11:36:49.701Z,1012.94
2018-05-17T11:37:49.646Z,1013.17
2018-05-17T11:38:49.596Z,1013.05
2018-05-17T11:39:49.548Z,1012.24
2018-05-17T11:40:49.492Z,1012.13
2018-05-17T11:41:49.816Z,1012.76
2018-05-17T11:42:49.557Z,1012.80
2018-05-17T11:43:49.342Z,1012.97
2018-05-17T11:44:49.286Z,1013.04
2018-05-17T11:45:49.245Z,1013.20
2018-05-17T11:46:49.183Z,1012.56
2018-05-17T11:47:49.130Z,1013.03
2018-05-17T11:48:49.083Z,1012.16
2018-05-17T11:49:49.026Z,1012.31
2018-05-17T11:50:48.979Z,1013.13
2018-05-17T11:51:48.926Z,1013.11
2018-05-17T11:52:48.879Z,1012.74
2018-05-17T11:53:48.835Z,1012.83
2018-05-17T11:54:48.777Z,1012.89
2018-05-17T11:55:48.725Z,1013.01
2018-05-17T11:56:48.673Z,1013.11
2018-05-17T11:57:48.630Z,1013.03
2018-05-17T11:58:48.578Z,1013.01
2018-05-17T11:59:48.528Z,1012.93
2018-05-17T12:00:48.482Z,1013.08
2018-05-17T12:01:48.422Z,1012.94
2018-05-17T12:02:48.407Z,1013.02
2018-05-17T12:03:48.328Z,1012.94
2018-05-17T12:04:48.278Z,1012.75
2018-05-17T12:05:48.227Z,1013.10
2018-05-17T12:06:48.190Z,1013.10
2018-05-17T12:07:48.147Z,1012.98
2018-05-17T12:08:48.085Z,1013.02
2018-05-17T12:09:48.027Z,1013.03
2018-05-17T12:10:47.980Z,1013.09
2018-05-17T12:11:47.935Z,1013.15
2018-05-17T12:12:47.880Z,1013.13
2018-05-17T12:13:47.847Z,1013.11
2018-05-17T12:14:47.785Z,1013.14
2018-05-17T12:15:47.735Z,1012.80
2018-05-17T12:16:47.685Z,1013.12
2018-05-17T12:17:47.635Z,1013.04
2018-05-17T12:18:47.581Z,1013.05
2018-05-17T12:19:47.536Z,1013.05
2018-05-17T12:20:47.483Z,1013.13
2018-05-17T12:21:47.436Z,1013.22
2018-05-17T12:22:47.392Z,1013.29
2018-05-17T12:23:47.347Z,1013.28
2018-05-17T12:24:47.291Z,1013.34
2018-05-17T12:25:47.240Z,1013.53
2018-05-17T12:26:47.187Z,1013.57
2018-05-17T12:27:47.151Z,1013.61